Yahata Maru — JL6477 — position and weather

sailwx.info

Track history (hours):
 
Tides and Currents Weather Stations Pressure Air Temp Water Temp Dewpoint Dewpoint Depression Visibility Wind Speed Wind Dir Waves Ship Positions

Yahata Maru

Last reported at 2016-Dec-10 07:25 UTC. Time now 2016-Dec-10 18:34 UTC.
Position N 35°07' E 139°42'.

Length 149 m; draft 4.7 m.

Type: Other ship. MMSI: 431400594.

Date/timePositionNaut miles runAvg speedWind from/ knotsBaromVisibWave heightAir tempDewpointWater temp
2016-Dec-10 07:25N 35°07' E 139°42'8 9.7
2016-Dec-10 06:33N 35°15' E 139°46'10 9.6
2016-Dec-10 05:33N 35°24' E 139°43'4 3.9
2016-Dec-10 04:31N 35°28' E 139°43'0 0.0
2016-Dec-10 03:31N 35°28' E 139°43'0 0.0
2016-Dec-10 02:31N 35°28' E 139°43'0 0.0
2016-Dec-10 01:31N 35°28' E 139°43'0 0.0
2016-Dec-10 00:31N 35°28' E 139°43'4 4.1
2016-Dec-09 23:33N 35°28' E 139°48'1010.0
2016-Dec-09 22:33N 35°33' E 139°58'4 0.3
2016-Dec-09 10:31N 35°34' E 140°03'2 1.6
2016-Dec-09 09:33N 35°33' E 140°01'0 0.0
2016-Dec-09 08:30N 35°33' E 140°01'0 0.0
2016-Dec-09 07:33N 35°33' E 140°01'0 0.1
2016-Dec-09 06:24N 35°33' E 140°02'0 0.0
2016-Dec-09 05:12N 35°33' E 140°01'1 1.7
2016-Dec-09 04:33N 35°32' E 140°00'10 9.6
2016-Dec-09 03:33N 35°27' E 139°50'9 9.4
2016-Dec-09 02:33N 35°19' E 139°44'9 9.0
2016-Dec-09 01:33N 35°11' E 139°46'  
2016-Dec-05 13:33N 34°36' E 134°54'8 8.5
2016-Dec-05 12:33N 34°36' E 135°04'9 9.4
2016-Dec-05 11:33N 34°37' E 135°16'7 7.1
2016-Dec-05 10:33N 34°43' E 135°21'0 0.1
2016-Dec-05 09:26N 34°43' E 135°21'0 0.0
2016-Dec-05 08:14N 34°43' E 135°21'0 0.0
2016-Dec-05 07:32N 34°43' E 135°21'4 3.6
2016-Dec-05 06:33N 34°40' E 135°22'5 5.4
2016-Dec-05 05:33N 34°35' E 135°26'0 0.0
2016-Dec-05 04:30N 34°35' E 135°26'0 0.0
2016-Dec-05 03:33N 34°35' E 135°26'5 5.3
2016-Dec-05 02:32N 34°36' E 135°19'0 0.0
2016-Dec-05 01:31N 34°36' E 135°19'0 0.0
2016-Dec-05 00:13N 34°36' E 135°19'0 0.0
2016-Dec-04 23:25N 34°36' E 135°19'1 1.6
2016-Dec-04 22:34N 34°34' E 135°19'10 9.6
2016-Dec-04 21:33N 34°27' E 135°11'9 9.1
2016-Dec-04 20:33N 34°21' E 135°04'7 7.3
2016-Dec-04 19:33N 34°14' E 134°60'9 8.8
2016-Dec-04 18:33N 34°05' E 135°01'237 5.9
2016-Dec-03 02:32N 35°06' E 139°39'10 9.7
2016-Dec-03 01:33N 35°13' E 139°46'1010.0
2016-Dec-03 00:33N 35°23' E 139°42'5 5.2
2016-Dec-02 23:31N 35°28' E 139°43'0 0.0
2016-Dec-02 22:31N 35°28' E 139°43'0 0.0
2016-Dec-02 21:31N 35°28' E 139°43'0 0.0
2016-Dec-02 20:31N 35°28' E 139°43'0 0.0
2016-Dec-02 19:31N 35°28' E 139°43'2 1.8
2016-Dec-02 18:34N 35°27' E 139°44'7 7.3
2016-Dec-02 17:33N 35°30' E 139°52'10 7.4
2016-Dec-02 16:09N 35°33' E 140°05'1 0.1
2016-Dec-02 04:13N 35°33' E 140°06'6 8.3
2016-Dec-02 03:31N 35°32' E 139°59'9 9.3
2016-Dec-02 02:33N 35°27' E 139°50'9 8.8
2016-Dec-02 01:33N 35°24' E 139°40'1 1.3
2016-Dec-02 00:32N 35°23' E 139°38'0 0.0
2016-Dec-01 23:32N 35°23' E 139°38'0 0.0
2016-Dec-01 22:33N 35°23' E 139°38'5 4.8
2016-Dec-01 21:32N 35°21' E 139°44'0 0.0
2016-Dec-01 20:33N 35°21' E 139°44'8 7.8
2016-Dec-01 19:33N 35°14' E 139°47'9 8.6
2016-Dec-01 18:32N 35°06' E 139°43'  
Track history (hours):
 
Tides and Currents Weather Stations Pressure Air Temp Water Temp Dewpoint Dewpoint Depression Visibility Wind Speed Wind Dir Waves Ship Positions

Yahata Maru

Last reported at 2016-Dec-10 07:25 UTC. Time now 2016-Dec-10 18:34 UTC.
Position N 35°07' E 139°42'.

Length 149 m; draft 4.7 m.

Type: Other ship. MMSI: 431400594.

Date/timePositionNaut miles runAvg speedWind from/ knotsBaromVisibWave heightAir tempDewpointWater temp
2016-Dec-10 07:25N 35°07' E 139°42'8 9.7
2016-Dec-10 06:33N 35°15' E 139°46'10 9.6
2016-Dec-10 05:33N 35°24' E 139°43'4 3.9
2016-Dec-10 04:31N 35°28' E 139°43'0 0.0
2016-Dec-10 03:31N 35°28' E 139°43'0 0.0
2016-Dec-10 02:31N 35°28' E 139°43'0 0.0
2016-Dec-10 01:31N 35°28' E 139°43'0 0.0
2016-Dec-10 00:31N 35°28' E 139°43'4 4.1
2016-Dec-09 23:33N 35°28' E 139°48'1010.0
2016-Dec-09 22:33N 35°33' E 139°58'4 0.3
2016-Dec-09 10:31N 35°34' E 140°03'2 1.6
2016-Dec-09 09:33N 35°33' E 140°01'0 0.0
2016-Dec-09 08:30N 35°33' E 140°01'0 0.0
2016-Dec-09 07:33N 35°33' E 140°01'0 0.1
2016-Dec-09 06:24N 35°33' E 140°02'0 0.0
2016-Dec-09 05:12N 35°33' E 140°01'1 1.7
2016-Dec-09 04:33N 35°32' E 140°00'10 9.6
2016-Dec-09 03:33N 35°27' E 139°50'9 9.4
2016-Dec-09 02:33N 35°19' E 139°44'9 9.0
2016-Dec-09 01:33N 35°11' E 139°46'  
2016-Dec-05 13:33N 34°36' E 134°54'8 8.5
2016-Dec-05 12:33N 34°36' E 135°04'9 9.4
2016-Dec-05 11:33N 34°37' E 135°16'7 7.1
2016-Dec-05 10:33N 34°43' E 135°21'0 0.1
2016-Dec-05 09:26N 34°43' E 135°21'0 0.0
2016-Dec-05 08:14N 34°43' E 135°21'0 0.0
2016-Dec-05 07:32N 34°43' E 135°21'4 3.6
2016-Dec-05 06:33N 34°40' E 135°22'5 5.4
2016-Dec-05 05:33N 34°35' E 135°26'0 0.0
2016-Dec-05 04:30N 34°35' E 135°26'0 0.0
2016-Dec-05 03:33N 34°35' E 135°26'5 5.3
2016-Dec-05 02:32N 34°36' E 135°19'0 0.0
2016-Dec-05 01:31N 34°36' E 135°19'0 0.0
2016-Dec-05 00:13N 34°36' E 135°19'0 0.0
2016-Dec-04 23:25N 34°36' E 135°19'1 1.6
2016-Dec-04 22:34N 34°34' E 135°19'10 9.6
2016-Dec-04 21:33N 34°27' E 135°11'9 9.1
2016-Dec-04 20:33N 34°21' E 135°04'7 7.3
2016-Dec-04 19:33N 34°14' E 134°60'9 8.8
2016-Dec-04 18:33N 34°05' E 135°01'237 5.9
2016-Dec-03 02:32N 35°06' E 139°39'10 9.7
2016-Dec-03 01:33N 35°13' E 139°46'1010.0
2016-Dec-03 00:33N 35°23' E 139°42'5 5.2
2016-Dec-02 23:31N 35°28' E 139°43'0 0.0
2016-Dec-02 22:31N 35°28' E 139°43'0 0.0
2016-Dec-02 21:31N 35°28' E 139°43'0 0.0
2016-Dec-02 20:31N 35°28' E 139°43'0 0.0
2016-Dec-02 19:31N 35°28' E 139°43'2 1.8
2016-Dec-02 18:34N 35°27' E 139°44'7 7.3
2016-Dec-02 17:33N 35°30' E 139°52'10 7.4
2016-Dec-02 16:09N 35°33' E 140°05'1 0.1
2016-Dec-02 04:13N 35°33' E 140°06'6 8.3
2016-Dec-02 03:31N 35°32' E 139°59'9 9.3
2016-Dec-02 02:33N 35°27' E 139°50'9 8.8
2016-Dec-02 01:33N 35°24' E 139°40'1 1.3
2016-Dec-02 00:32N 35°23' E 139°38'0 0.0
2016-Dec-01 23:32N 35°23' E 139°38'0 0.0
2016-Dec-01 22:33N 35°23' E 139°38'5 4.8
2016-Dec-01 21:32N 35°21' E 139°44'0 0.0
2016-Dec-01 20:33N 35°21' E 139°44'8 7.8
2016-Dec-01 19:33N 35°14' E 139°47'9 8.6
2016-Dec-01 18:32N 35°06' E 139°43'  

Dump ship's entire track history